TimeEDT,TemperatureF,Dew PointF,Humidity,Sea Level PressureIn,VisibilityMPH,Wind Direction,Wind SpeedMPH,Gust SpeedMPH,PrecipitationIn,Events,Conditions,WindDirDegrees,DateUTC
12:15 AM,57.4,56.1,96,30.09,10.0,Calm,Calm,-,N/A,,Clear,0,2013-08-11 04:15:00
12:36 AM,57.4,56.3,96,30.09,10.0,Calm,Calm,-,N/A,,Clear,0,2013-08-11 04:36:00
12:56 AM,57.4,56.3,96,30.09,10.0,WNW,3.5,-,N/A,,Clear,290,2013-08-11 04:56:00
1:16 AM,57.2,55.9,96,30.09,10.0,Calm,Calm,-,N/A,,Clear,0,2013-08-11 05:16:00
1:36 AM,57.4,56.3,96,30.09,10.0,Calm,Calm,-,N/A,,Clear,0,2013-08-11 05:36:00
1:56 AM,57.6,56.7,97,30.09,10.0,Calm,Calm,-,N/A,,Clear,0,2013-08-11 05:56:00
2:16 AM,57.4,56.5,97,30.10,10.0,Calm,Calm,-,N/A,,Clear,0,2013-08-11 06:16:00
2:36 AM,57.6,56.7,97,30.10,10.0,Calm,Calm,-,N/A,,Scattered Clouds,0,2013-08-11 06:36:00
2:56 AM,57.9,57.2,97,30.09,10.0,SSW,4.6,-,N/A,,Scattered Clouds,200,2013-08-11 06:56:00
3:16 AM,57.2,56.3,97,30.09,10.0,South,5.8,-,N/A,,Scattered Clouds,190,2013-08-11 07:16:00
3:36 AM,57.9,57.2,97,30.08,10.0,South,6.9,-,N/A,,Scattered Clouds,190,2013-08-11 07:36:00
3:56 AM,58.5,57.6,97,30.08,10.0,SSW,4.6,-,N/A,,Scattered Clouds,200,2013-08-11 07:56:00
4:16 AM,57.9,57.0,97,30.08,10.0,SW,5.8,-,N/A,,Scattered Clouds,220,2013-08-11 08:16:00
4:36 AM,58.1,56.8,96,30.08,10.0,SSW,6.9,-,N/A,,Clear,210,2013-08-11 08:36:00
4:56 AM,57.6,56.8,97,30.08,10.0,SSW,6.9,-,N/A,,Clear,200,2013-08-11 08:56:00
5:16 AM,57.4,56.3,96,30.08,10.0,SW,5.8,-,N/A,,Scattered Clouds,230,2013-08-11 09:16:00
5:36 AM,57.2,56.5,97,30.08,10.0,SSW,4.6,-,N/A,,Mostly Cloudy,210,2013-08-11 09:36:00
5:56 AM,57.7,57.2,98,30.08,10.0,South,4.6,-,N/A,,Scattered Clouds,190,2013-08-11 09:56:00
6:16 AM,57.7,57.0,97,30.08,10.0,South,6.9,-,N/A,,Scattered Clouds,180,2013-08-11 10:16:00
6:36 AM,58.3,56.8,95,30.08,10.0,SSW,8.1,-,N/A,,Overcast,200,2013-08-11 10:36:00
6:56 AM,58.8,56.7,93,30.08,10.0,South,8.1,-,N/A,,Mostly Cloudy,170,2013-08-11 10:56:00
7:16 AM,59.0,56.7,92,30.08,10.0,South,5.8,-,N/A,,Clear,190,2013-08-11 11:16:00
7:36 AM,59.2,57.2,93,30.08,10.0,SSW,5.8,-,N/A,,Clear,200,2013-08-11 11:36:00
7:56 AM,61.0,58.3,91,30.08,10.0,South,5.8,-,N/A,,Scattered Clouds,190,2013-08-11 11:56:00
8:16 AM,61.7,59.0,91,30.08,10.0,SSW,5.8,-,N/A,,Scattered Clouds,200,2013-08-11 12:16:00
8:36 AM,62.6,60.1,91,30.07,10.0,SW,6.9,-,N/A,,Clear,230,2013-08-11 12:36:00
8:56 AM,63.0,60.6,92,30.08,10.0,WSW,4.6,-,N/A,,Scattered Clouds,240,2013-08-11 12:56:00
9:16 AM,64.6,62.1,92,30.08,10.0,WSW,5.8,-,N/A,,Mostly Cloudy,250,2013-08-11 13:16:00
9:36 AM,65.1,62.4,91,30.08,10.0,West,5.8,-,N/A,,Mostly Cloudy,260,2013-08-11 13:36:00
9:56 AM,66.6,62.2,86,30.08,10.0,West,3.5,-,N/A,,Scattered Clouds,280,2013-08-11 13:56:00
10:16 AM,67.1,62.1,84,30.08,10.0,WSW,4.6,-,N/A,,Clear,250,2013-08-11 14:16:00
10:36 AM,67.1,61.9,83,30.08,10.0,West,3.5,-,N/A,,Clear,270,2013-08-11 14:36:00
10:55 AM,67.3,60.6,79,30.08,10.0,WSW,4.6,-,N/A,,Clear,250,2013-08-11 14:55:00
11:16 AM,67.5,59.9,77,30.08,10.0,SW,4.6,-,N/A,,Clear,230,2013-08-11 15:16:00
11:36 AM,68.4,58.8,71,30.07,10.0,WSW,3.5,-,N/A,,Clear,250,2013-08-11 15:36:00
11:56 AM,67.3,59.7,77,30.07,10.0,WSW,6.9,-,N/A,,Clear,240,2013-08-11 15:56:00
12:16 PM,68.0,60.3,76,30.07,10.0,WSW,8.1,-,N/A,,Clear,240,2013-08-11 16:16:00
12:36 PM,68.0,59.7,75,30.07,10.0,WSW,5.8,-,N/A,,Clear,240,2013-08-11 16:36:00
12:56 PM,68.0,58.3,71,30.07,10.0,WSW,6.9,-,N/A,,Clear,240,2013-08-11 16:56:00
1:16 PM,67.6,59.2,74,30.08,10.0,WSW,11.5,-,N/A,,Clear,240,2013-08-11 17:16:00
1:36 PM,67.6,56.8,68,30.07,10.0,WSW,10.4,-,N/A,,Clear,240,2013-08-11 17:36:00
1:56 PM,68.9,55.2,62,30.07,10.0,SW,5.8,-,N/A,,Clear,230,2013-08-11 17:56:00
2:15 PM,70.0,56.1,61,30.07,10.0,WSW,11.5,-,N/A,,Clear,240,2013-08-11 18:15:00
2:36 PM,68.4,57.2,67,30.07,10.0,SW,9.2,-,N/A,,Clear,230,2013-08-11 18:36:00
2:56 PM,68.7,59.5,72,30.06,10.0,WSW,9.2,-,N/A,,Clear,240,2013-08-11 18:56:00
3:15 PM,68.0,59.7,75,30.06,10.0,WSW,9.2,-,N/A,,Clear,240,2013-08-11 19:15:00
3:36 PM,68.0,59.0,73,30.06,10.0,SW,6.9,-,N/A,,Clear,230,2013-08-11 19:36:00
3:56 PM,67.8,56.7,67,30.04,10.0,SW,8.1,-,N/A,,Clear,220,2013-08-11 19:56:00
4:15 PM,69.1,57.2,66,30.04,10.0,WSW,6.9,-,N/A,,Scattered Clouds,240,2013-08-11 20:15:00
4:36 PM,69.4,57.4,65,30.04,10.0,WSW,8.1,-,N/A,,Clear,240,2013-08-11 20:36:00
4:56 PM,70.0,54.9,59,30.04,10.0,WSW,8.1,16.1,N/A,,Clear,250,2013-08-11 20:56:00
5:15 PM,70.9,56.3,60,30.04,10.0,WSW,10.4,-,N/A,,Clear,250,2013-08-11 21:15:00
5:36 PM,70.2,57.6,64,30.04,10.0,WSW,11.5,-,N/A,,Clear,250,2013-08-11 21:36:00
5:56 PM,70.0,55.9,61,30.03,10.0,SW,4.6,-,N/A,,Clear,230,2013-08-11 21:56:00
6:15 PM,69.8,57.7,65,30.02,10.0,SW,9.2,-,N/A,,Clear,230,2013-08-11 22:15:00
6:36 PM,69.1,57.2,66,30.02,10.0,WSW,8.1,-,N/A,,Clear,240,2013-08-11 22:36:00
6:56 PM,69.1,55.2,61,30.02,10.0,WSW,9.2,-,N/A,,Clear,250,2013-08-11 22:56:00
7:15 PM,68.9,56.3,64,30.02,10.0,WSW,9.2,-,N/A,,Clear,250,2013-08-11 23:15:00
7:36 PM,67.3,59.2,75,30.02,10.0,WSW,11.5,16.1,N/A,,Scattered Clouds,240,2013-08-11 23:36:00
7:56 PM,66.4,60.1,80,30.02,10.0,WSW,10.4,16.1,N/A,,Mostly Cloudy,250,2013-08-11 23:56:00
8:15 PM,66.4,59.9,80,30.02,10.0,WSW,8.1,-,N/A,,Overcast,240,2013-08-12 00:15:00
8:36 PM,66.6,61.2,83,30.02,10.0,WSW,8.1,-,N/A,,Overcast,240,2013-08-12 00:36:00
8:56 PM,65.3,61.0,86,30.02,10.0,WSW,8.1,-,N/A,,Mostly Cloudy,240,2013-08-12 00:56:00
9:15 PM,64.8,60.8,87,30.02,10.0,WSW,6.9,-,N/A,,Scattered Clouds,250,2013-08-12 01:15:00
9:36 PM,64.4,59.2,83,30.02,10.0,WSW,9.2,-,N/A,,Clear,250,2013-08-12 01:36:00
9:56 PM,64.4,59.9,85,30.03,10.0,WSW,9.2,-,N/A,,Clear,250,2013-08-12 01:56:00
10:15 PM,64.8,60.4,86,30.03,10.0,West,6.9,-,N/A,,Clear,260,2013-08-12 02:15:00
10:36 PM,64.6,59.4,83,30.03,10.0,West,9.2,-,N/A,,Clear,260,2013-08-12 02:36:00
10:56 PM,64.2,59.0,83,30.02,10.0,WSW,8.1,-,N/A,,Clear,250,2013-08-12 02:56:00
11:16 PM,64.6,59.5,84,30.02,10.0,West,8.1,-,N/A,,Clear,260,2013-08-12 03:16:00
11:36 PM,63.9,59.9,87,30.02,10.0,West,6.9,-,N/A,,Clear,260,2013-08-12 03:36:00
11:55 PM,64.0,59.9,86,30.02,10.0,West,8.1,-,N/A,,Clear,260,2013-08-12 03:55:00